EYZ YRED-YRED
Flight info
| Callsign | EYZ |
|---|---|
| Flight time | 0h 4m |
| Altitude | 4000 |
| Route | OPERATING IN THE TRAINING AREA |
| Aircraft | H160/M-SDFGR/S |
Departure
| Time | 2026-04-28 09:24 |
|---|---|
| Airport | Redcliffe Airport (YRED) |
Arrival
| Time | 2026-04-28 09:28 |
|---|---|
| Airport | Redcliffe Airport (YRED) |
| Time | Latitude | Longitude | Altitude | Speed | Heading |
|---|---|---|---|---|---|
| 2026-04-28 09:17 | -27.20642 | 153.07115 | 18 ft | 0 kts | 344° |
| 2026-04-28 09:20 | -27.20644 | 153.07116 | 16 ft | 0 kts | 64° |
| 2026-04-28 09:21 | -27.20643 | 153.07117 | 17 ft | 1 kts | 80° |
| 2026-04-28 09:21 | -27.20647 | 153.07147 | 16 ft | 7 kts | 91° |
| 2026-04-28 09:21 | -27.20635 | 153.07215 | 16 ft | 6 kts | 75° |
| 2026-04-28 09:21 | -27.20601 | 153.07245 | 17 ft | 6 kts | 346° |
| 2026-04-28 09:22 | -27.20583 | 153.07220 | 17 ft | 4 kts | 266° |
| 2026-04-28 09:22 | -27.20590 | 153.07184 | 18 ft | 7 kts | 261° |
| 2026-04-28 09:22 | -27.20600 | 153.07131 | 17 ft | 8 kts | 256° |
| 2026-04-28 09:22 | -27.20612 | 153.07068 | 23 ft | 12 kts | 258° |
| 2026-04-28 09:23 | -27.20640 | 153.06915 | 28 ft | 30 kts | 243° |
| 2026-04-28 09:23 | -27.20705 | 153.06610 | 141 ft | 51 kts | 255° |
| 2026-04-28 09:23 | -27.20781 | 153.06150 | 305 ft | 68 kts | 256° |
| 2026-04-28 09:23 | -27.20820 | 153.05567 | 421 ft | 83 kts | 274° |
| 2026-04-28 09:24 | -27.20462 | 153.05003 | 569 ft | 101 kts | 333° |
| 2026-04-28 09:24 | -27.19758 | 153.04800 | 671 ft | 108 kts | 353° |
| 2026-04-28 09:24 | -27.19000 | 153.04640 | 698 ft | 113 kts | 353° |
| 2026-04-28 09:24 | -27.18209 | 153.04506 | 738 ft | 116 kts | 356° |
| 2026-04-28 09:25 | -27.17403 | 153.04402 | 814 ft | 118 kts | 358° |
| 2026-04-28 09:25 | -27.16579 | 153.04330 | 889 ft | 119 kts | 3° |
| 2026-04-28 09:25 | -27.15775 | 153.04476 | 1024 ft | 116 kts | 28° |
| 2026-04-28 09:25 | -27.15027 | 153.04820 | 1087 ft | 116 kts | 30° |
| 2026-04-28 09:26 | -27.14284 | 153.05194 | 1126 ft | 117 kts | 34° |
| 2026-04-28 09:26 | -27.13554 | 153.05599 | 1135 ft | 117 kts | 37° |
| 2026-04-28 09:26 | -27.12840 | 153.06032 | 1153 ft | 117 kts | 39° |
| 2026-04-28 09:26 | -27.12137 | 153.06500 | 1181 ft | 117 kts | 40° |
| 2026-04-28 09:27 | -27.10857 | 153.07577 | 1193 ft | 113 kts | 60° |
| 2026-04-28 09:27 | -27.10402 | 153.08391 | 859 ft | 134 kts | 69° |
| 2026-04-28 09:27 | -27.09986 | 153.09378 | 589 ft | 136 kts | 71° |
| 2026-04-28 09:28 | -27.09530 | 153.10270 | 582 ft | 129 kts | 63° |
| 2026-04-28 09:28 | -27.09216 | 153.11146 | 641 ft | 119 kts | 87° |
| 2026-04-28 09:28 | -27.09182 | 153.12039 | 626 ft | 102 kts | 95° |
| 2026-04-28 09:28 | -27.09093 | 153.12570 | 588 ft | 34 kts | 98° |
| 2026-04-28 09:29 | -27.08975 | 153.12867 | 436 ft | 80 kts | 69° |
| 2026-04-28 09:29 | -27.08659 | 153.13285 | 357 ft | 129 kts | 50° |
| 2026-04-28 09:29 | -27.08197 | 153.13837 | 505 ft | 64 kts | 54° |
| 2026-04-28 09:29 | -27.07940 | 153.14066 | 403 ft | 39 kts | 21° |
| 2026-04-28 09:30 | -27.07689 | 153.14177 | 229 ft | 28 kts | 6° |
| 2026-04-28 09:30 | -27.07616 | 153.14161 | 86 ft | 9 kts | 30° |
| 2026-04-28 09:30 | -27.07537 | 153.14151 | 161 ft | 9 kts | 87° |
| 2026-04-28 09:30 | -27.07476 | 153.14174 | 86 ft | 5 kts | 123° |
| 2026-04-28 09:31 | -27.07480 | 153.14200 | 47 ft | 4 kts | 143° |
| 2026-04-28 09:31 | -27.07465 | 153.14211 | 20 ft | 1 kts | 187° |
| 2026-04-28 09:31 | -27.07471 | 153.14210 | 20 ft | 3 kts | 176° |
| 2026-04-28 09:32 | -27.07473 | 153.14210 | 20 ft | 0 kts | 175° |
| 2026-04-28 09:46 | -27.07475 | 153.14210 | 19 ft | 1 kts | 169° |
| 2026-04-28 09:46 | -27.07417 | 153.14192 | 143 ft | 19 kts | 126° |
| 2026-04-28 09:46 | -27.07265 | 153.14126 | 485 ft | 13 kts | 136° |
| 2026-04-28 09:46 | -27.07345 | 153.14368 | 417 ft | 78 kts | 126° |
| 2026-04-28 09:47 | -27.07667 | 153.14958 | 500 ft | 89 kts | 127° |
| 2026-04-28 09:47 | -27.07991 | 153.15587 | 621 ft | 93 kts | 123° |
| 2026-04-28 09:47 | -27.08294 | 153.16212 | 735 ft | 91 kts | 122° |
| 2026-04-28 09:47 | -27.08586 | 153.16840 | 838 ft | 89 kts | 125° |
| 2026-04-28 09:48 | -27.08803 | 153.17182 | 842 ft | 74 kts | 136° |
| 2026-04-28 09:48 | -27.09150 | 153.17492 | 833 ft | 56 kts | 151° |
| 2026-04-28 09:48 | -27.09459 | 153.17601 | 830 ft | 44 kts | 156° |
| 2026-04-28 09:48 | -27.09706 | 153.17681 | 827 ft | 30 kts | 152° |
| 2026-04-28 09:49 | -27.09789 | 153.17738 | 809 ft | 1 kts | 122° |
| 2026-04-28 09:49 | -27.09788 | 153.17738 | 807 ft | 1 kts | 359° |
| 2026-04-28 09:49 | -27.09769 | 153.17720 | 815 ft | 4 kts | 195° |
| 2026-04-28 09:49 | -27.09776 | 153.17792 | 825 ft | 30 kts | 128° |
| 2026-04-28 09:50 | -27.09854 | 153.18018 | 1012 ft | 62 kts | 107° |
| 2026-04-28 09:50 | -27.09543 | 153.18487 | 1352 ft | 100 kts | 43° |
| 2026-04-28 09:50 | -27.08685 | 153.18704 | 1095 ft | 149 kts | 3° |
| 2026-04-28 09:50 | -27.07648 | 153.18536 | 1059 ft | 143 kts | 355° |
| 2026-04-28 09:51 | -27.06762 | 153.18387 | 1076 ft | 115 kts | 356° |
| 2026-04-28 09:51 | -27.06043 | 153.18259 | 1070 ft | 95 kts | 356° |
| 2026-04-28 09:51 | -27.05448 | 153.18156 | 1068 ft | 81 kts | 356° |
| 2026-04-28 09:51 | -27.04878 | 153.18077 | 1063 ft | 83 kts | 359° |
| 2026-04-28 09:52 | -27.04309 | 153.18030 | 1063 ft | 82 kts | 4° |
| 2026-04-28 09:52 | -27.03736 | 153.18014 | 1060 ft | 82 kts | 7° |
| 2026-04-28 09:52 | -27.03165 | 153.18025 | 1058 ft | 82 kts | 9° |
| 2026-04-28 09:52 | -27.02597 | 153.18058 | 1055 ft | 82 kts | 12° |
| 2026-04-28 09:53 | -27.02032 | 153.18113 | 1057 ft | 83 kts | 15° |
| 2026-04-28 09:53 | -27.01462 | 153.18187 | 1063 ft | 82 kts | 7° |
| 2026-04-28 09:53 | -27.00893 | 153.18262 | 1060 ft | 81 kts | 6° |
| 2026-04-28 09:53 | -27.00340 | 153.18326 | 1059 ft | 82 kts | 10° |
| 2026-04-28 09:54 | -26.99775 | 153.18384 | 1061 ft | 82 kts | 9° |
| 2026-04-28 09:54 | -26.99205 | 153.18436 | 1157 ft | 83 kts | 1° |
| 2026-04-28 09:54 | -26.98645 | 153.17987 | 1101 ft | 136 kts | 292° |
| 2026-04-28 09:54 | -26.98168 | 153.17052 | 1104 ft | 135 kts | 292° |
| 2026-04-28 09:55 | -26.97740 | 153.16106 | 1103 ft | 138 kts | 288° |
| 2026-04-28 09:55 | -26.97365 | 153.15111 | 1108 ft | 139 kts | 284° |
| 2026-04-28 09:55 | -26.97048 | 153.14087 | 1106 ft | 139 kts | 280° |
| 2026-04-28 09:55 | -26.96793 | 153.13049 | 1109 ft | 139 kts | 276° |
| 2026-04-28 09:56 | -26.96596 | 153.11987 | 1109 ft | 139 kts | 272° |
| 2026-04-28 09:56 | -26.96466 | 153.10918 | 1107 ft | 139 kts | 268° |
| 2026-04-28 09:56 | -26.96406 | 153.09836 | 1111 ft | 139 kts | 264° |
| 2026-04-28 09:56 | -26.96422 | 153.08753 | 1118 ft | 140 kts | 256° |
| 2026-04-28 09:57 | -26.96706 | 153.07914 | 1130 ft | 86 kts | 163° |
| 2026-04-28 09:57 | -26.96769 | 153.08513 | 882 ft | 78 kts | 80° |
| 2026-04-28 09:57 | -26.96875 | 153.09026 | 1158 ft | 61 kts | 123° |
| 2026-04-28 09:57 | -26.97214 | 153.09207 | 1421 ft | 50 kts | 157° |
| 2026-04-28 09:58 | -26.97476 | 153.09311 | 1764 ft | 31 kts | 133° |
| 2026-04-28 09:58 | -26.97572 | 153.09444 | 2093 ft | 15 kts | 82° |
| 2026-04-28 09:58 | -26.97537 | 153.09496 | 2345 ft | 8 kts | 321° |
| 2026-04-28 09:58 | -26.97474 | 153.09428 | 1983 ft | 19 kts | 329° |
| 2026-04-28 09:59 | -26.97682 | 153.09585 | 336 ft | 73 kts | 356° |